Time;durP1;ratioP1;P1;durP2;ratioP2;P2;SDS_P1;SDS_P2;PMS_P1;PMS_P2;Temp;Humidity;BMP_temperature;BMP_pressure;BME280_temperature;BME280_humidity;BME280_pressure;Samples;Min_cycle;Max_cycle;Signal;HPM_P1;HPM_P2
2023/04/30 00:00:41;0.00;0.00;0.62;0.00;0.00;0.62;2.10;1.20;;;25.60;23.00;;;;;;2255616;61;20928;-64
2023/04/30 00:03:26;0.00;0.00;0.62;0.00;0.00;0.62;1.40;0.93;;;25.60;23.00;;;;;;2256524;61;20460;-64
2023/04/30 00:06:10;0.00;0.00;0.62;0.00;0.00;0.62;1.43;1.00;;;25.60;23.00;;;;;;2256080;61;20829;-64
2023/04/30 00:08:55;0.00;0.00;0.62;0.00;0.00;0.62;1.93;1.03;;;25.60;23.00;;;;;;2256015;61;20401;-64
2023/04/30 00:11:41;0.00;0.00;0.62;0.00;0.00;0.62;1.60;1.00;;;25.60;23.00;;;;;;2256498;61;20365;-64
2023/04/30 00:14:26;0.00;0.00;0.62;0.00;0.00;0.62;1.60;1.03;;;25.60;23.00;;;;;;2255972;61;20419;-62
2023/04/30 00:17:11;0.00;0.00;0.62;0.00;0.00;0.62;1.80;1.17;;;25.60;23.00;;;;;;2256119;61;20382;-64
2023/04/30 00:19:56;0.00;0.00;0.62;0.00;0.00;0.62;1.57;1.00;;;25.60;23.00;;;;;;2256179;61;20381;-64
2023/04/30 00:22:40;0.00;0.00;0.62;0.00;0.00;0.62;1.60;1.10;;;25.60;23.00;;;;;;2255859;61;20761;-65
2023/04/30 00:25:25;0.00;0.00;0.62;0.00;0.00;0.62;2.03;1.20;;;25.50;23.00;;;;;;2256343;61;20362;-64
2023/04/30 00:28:11;0.00;0.00;0.62;0.00;0.00;0.62;1.53;0.90;;;25.50;23.00;;;;;;2256754;61;20358;-65
2023/04/30 00:30:56;0.00;0.00;0.62;0.00;0.00;0.62;1.50;1.10;;;25.50;23.00;;;;;;2255449;61;20474;-64
2023/04/30 00:33:40;0.00;0.00;0.62;0.00;0.00;0.62;1.80;1.00;;;25.50;22.90;;;;;;2255930;61;20468;-64
2023/04/30 00:36:25;0.00;0.00;0.62;0.00;0.00;0.62;1.53;1.10;;;25.50;23.00;;;;;;2255682;61;20513;-64
2023/04/30 00:39:10;0.00;0.00;0.62;0.00;0.00;0.62;1.93;1.20;;;25.50;22.90;;;;;;2255553;61;20838;-65
2023/04/30 00:41:55;0.00;0.00;0.62;0.00;0.00;0.62;2.10;1.10;;;25.50;22.90;;;;;;2256405;61;20417;-63
2023/04/30 00:44:40;0.00;0.00;0.62;0.00;0.00;0.62;1.53;0.90;;;25.50;23.00;;;;;;2255375;61;20366;-64
2023/04/30 00:47:25;0.00;0.00;0.62;0.00;0.00;0.62;1.50;1.00;;;25.50;23.00;;;;;;2256361;61;20408;-66
2023/04/30 00:50:14;0.00;0.00;0.62;0.00;0.00;0.62;2.40;0.97;;;25.50;23.00;;;;;;2255705;61;20433;-65
2023/04/30 00:53:00;0.00;0.00;0.62;0.00;0.00;0.62;2.50;1.10;;;25.50;23.00;;;;;;2256125;61;20366;-63
2023/04/30 00:55:45;0.00;0.00;0.62;0.00;0.00;0.62;1.70;1.03;;;25.50;22.90;;;;;;2256084;61;20424;-64
2023/04/30 00:58:30;0.00;0.00;0.62;0.00;0.00;0.62;2.00;1.10;;;25.50;23.00;;;;;;2255966;61;20655;-65
2023/04/30 01:01:17;0.00;0.00;0.62;0.00;0.00;0.62;1.40;0.90;;;25.40;22.90;;;;;;2256031;61;20429;-64
2023/04/30 01:04:01;0.00;0.00;0.62;0.00;0.00;0.62;1.50;0.90;;;25.50;23.00;;;;;;2256233;61;20366;-64
2023/04/30 01:06:46;0.00;0.00;0.62;0.00;0.00;0.62;1.53;0.93;;;25.50;22.90;;;;;;2255118;61;20378;-64
2023/04/30 01:09:31;0.00;0.00;0.62;0.00;0.00;0.62;1.83;1.03;;;25.40;22.90;;;;;;2256025;61;20386;-64
2023/04/30 01:12:25;0.00;0.00;0.62;0.00;0.00;0.62;1.53;0.90;;;25.40;22.90;;;;;;2256348;61;20462;-65
2023/04/30 01:15:21;0.00;0.00;0.62;0.00;0.00;0.62;1.30;0.80;;;25.40;22.90;;;;;;2255952;61;20405;-65
2023/04/30 01:18:16;0.00;0.00;0.62;0.00;0.00;0.62;1.73;1.00;;;25.40;22.90;;;;;;2256309;61;20398;-64
2023/04/30 01:21:04;0.00;0.00;0.62;0.00;0.00;0.62;1.53;1.17;;;25.40;22.90;;;;;;2255276;61;20533;-64
2023/04/30 01:24:30;0.00;0.00;0.62;0.00;0.00;0.62;1.60;1.00;;;25.40;22.90;;;;;;2255758;61;20417;-63
2023/04/30 01:27:30;0.00;0.00;0.62;0.00;0.00;0.62;1.70;1.23;;;25.40;22.90;;;;;;2255894;61;20413;-64
2023/04/30 01:30:18;0.00;0.00;0.62;0.00;0.00;0.62;1.47;0.90;;;25.40;22.90;;;;;;2255310;61;20544;-63
2023/04/30 01:33:02;0.00;0.00;0.62;0.00;0.00;0.62;2.00;0.87;;;25.40;22.90;;;;;;2255939;61;20887;-63
2023/04/30 01:36:12;0.00;0.00;0.62;0.00;0.00;0.62;1.53;0.93;;;25.40;22.90;;;;;;2255474;61;20385;-64
2023/04/30 01:39:19;0.00;0.00;0.62;0.00;0.00;0.62;1.77;0.80;;;25.40;22.90;;;;;;2255675;61;20353;-65
2023/04/30 01:42:09;0.00;0.00;0.62;0.00;0.00;0.62;1.40;0.90;;;25.40;23.10;;;;;;2256048;61;21004;-67
2023/04/30 01:45:17;0.00;0.00;0.62;0.00;0.00;0.62;1.70;0.90;;;25.30;22.90;;;;;;2255331;61;20894;-65
2023/04/30 01:48:21;0.00;0.00;0.62;0.00;0.00;0.62;1.33;0.90;;;25.30;22.90;;;;;;2255854;61;20362;-66
2023/04/30 01:51:14;0.00;0.00;0.62;0.00;0.00;0.62;1.50;1.00;;;25.30;23.40;;;;;;2255065;61;20428;-64
2023/04/30 01:54:08;0.00;0.00;0.62;0.00;0.00;0.62;1.60;0.90;;;25.30;22.90;;;;;;2256389;61;20370;-67
2023/04/30 01:57:03;0.00;0.00;0.62;0.00;0.00;0.62;1.50;0.80;;;25.30;22.90;;;;;;2256042;61;20844;-64
2023/04/30 01:59:48;0.00;0.00;0.62;0.00;0.00;0.62;1.40;0.90;;;25.20;22.80;;;;;;2252601;61;21101;-66
2023/04/30 02:02:33;0.00;0.00;0.62;0.00;0.00;0.62;1.63;0.90;;;25.30;22.90;;;;;;2256086;61;20898;-64
2023/04/30 02:05:19;0.00;0.00;0.62;0.00;0.00;0.62;2.37;1.20;;;25.30;22.90;;;;;;2255590;61;20420;-65
2023/04/30 02:08:05;0.00;0.00;0.62;0.00;0.00;0.62;1.50;0.90;;;25.20;22.80;;;;;;2256100;61;20833;-64
2023/04/30 02:10:51;0.00;0.00;0.62;0.00;0.00;0.62;1.40;0.87;;;25.20;22.80;;;;;;2255439;61;20404;-64
2023/04/30 02:13:36;0.00;0.00;0.62;0.00;0.00;0.62;1.40;0.87;;;25.20;22.80;;;;;;2255513;61;20366;-69
2023/04/30 02:16:20;0.00;0.00;0.62;0.00;0.00;0.62;1.50;1.10;;;25.20;22.80;;;;;;2255732;61;20370;-67
2023/04/30 02:19:05;0.00;0.00;0.62;0.00;0.00;0.62;1.63;0.80;;;25.20;22.80;;;;;;2255246;61;20373;-63
2023/04/30 02:21:51;0.00;0.00;0.62;0.00;0.00;0.62;1.50;1.10;;;25.20;22.80;;;;;;2255560;61;20446;-64
2023/04/30 02:24:36;0.00;0.00;0.62;0.00;0.00;0.62;1.57;1.07;;;25.20;22.80;;;;;;2256214;61;20488;-64
2023/04/30 02:27:22;0.00;0.00;0.62;0.00;0.00;0.62;1.80;1.10;;;25.20;22.80;;;;;;2255538;61;20394;-64
2023/04/30 02:30:08;0.00;0.00;0.62;0.00;0.00;0.62;2.23;1.03;;;25.20;22.80;;;;;;2256030;61;20382;-65
2023/04/30 02:32:52;0.00;0.00;0.62;0.00;0.00;0.62;1.60;1.00;;;25.20;22.80;;;;;;2256200;61;20425;-67
2023/04/30 02:35:39;0.00;0.00;0.62;0.00;0.00;0.62;1.43;0.90;;;25.20;22.80;;;;;;2255832;61;20855;-65
2023/04/30 02:38:26;0.00;0.00;0.62;0.00;0.00;0.62;1.83;0.80;;;25.20;22.80;;;;;;2255557;61;20421;-65
2023/04/30 02:41:11;0.00;0.00;0.62;0.00;0.00;0.62;1.50;0.90;;;25.20;22.80;;;;;;2255058;61;20459;-63
2023/04/30 02:43:57;0.00;0.00;0.62;0.00;0.00;0.62;1.40;0.90;;;25.10;22.80;;;;;;2255450;61;20373;-65
2023/04/30 02:46:41;0.00;0.00;0.62;0.00;0.00;0.62;1.30;0.80;;;25.20;22.80;;;;;;2255957;61;20501;-65
2023/04/30 02:49:51;0.00;0.00;0.62;0.00;0.00;0.62;1.67;0.90;;;25.10;22.80;;;;;;2293783;40;20961;31
2023/04/30 02:52:35;0.00;0.00;0.62;0.00;0.00;0.62;1.50;0.83;;;25.10;22.80;;;;;;2249459;61;20387;-64
2023/04/30 02:55:21;0.00;0.00;0.62;0.00;0.00;0.62;1.90;1.00;;;25.10;22.80;;;;;;2247804;61;20387;-65
2023/04/30 02:58:06;0.00;0.00;0.62;0.00;0.00;0.62;1.33;0.70;;;25.10;22.80;;;;;;2247339;61;20479;-64
2023/04/30 03:00:51;0.00;0.00;0.62;0.00;0.00;0.62;1.40;0.90;;;25.10;22.80;;;;;;2250931;61;20383;-64
2023/04/30 03:03:35;0.00;0.00;0.62;0.00;0.00;0.62;1.37;0.97;;;25.10;22.80;;;;;;2252187;61;20506;-64
2023/04/30 03:06:20;0.00;0.00;0.62;0.00;0.00;0.62;1.70;0.93;;;25.10;22.80;;;;;;2252118;61;20402;-65
2023/04/30 03:09:05;0.00;0.00;0.62;0.00;0.00;0.62;1.60;0.80;;;25.10;22.80;;;;;;2252144;61;20406;-64
2023/04/30 03:11:51;0.00;0.00;0.62;0.00;0.00;0.62;1.60;0.80;;;25.10;22.80;;;;;;2252349;61;20406;-63
2023/04/30 03:14:36;0.00;0.00;0.62;0.00;0.00;0.62;1.70;1.13;;;25.10;22.80;;;;;;2252678;61;20362;-65
2023/04/30 03:17:22;0.00;0.00;0.62;0.00;0.00;0.62;1.80;1.00;;;25.10;22.80;;;;;;2252252;61;20570;-64
2023/04/30 03:20:08;0.00;0.00;0.62;0.00;0.00;0.62;1.37;0.73;;;25.10;22.80;;;;;;2251241;61;20386;-64
2023/04/30 03:22:53;0.00;0.00;0.62;0.00;0.00;0.62;1.50;0.90;;;25.10;22.80;;;;;;2252393;61;20365;-65
2023/04/30 03:25:38;0.00;0.00;0.62;0.00;0.00;0.62;1.30;0.80;;;25.00;22.70;;;;;;2252245;61;20958;-65
2023/04/30 03:28:25;0.00;0.00;0.62;0.00;0.00;0.62;1.30;0.80;;;25.00;22.70;;;;;;2252615;61;20398;-66
2023/04/30 03:31:10;0.00;0.00;0.62;0.00;0.00;0.62;1.67;1.23;;;25.00;22.70;;;;;;2251710;61;20433;-64
2023/04/30 03:33:55;0.00;0.00;0.62;0.00;0.00;0.62;2.10;1.03;;;25.00;22.70;;;;;;2252435;61;20379;-64
2023/04/30 03:36:40;0.00;0.00;0.62;0.00;0.00;0.62;1.40;1.00;;;25.00;22.70;;;;;;2254812;61;20410;-64
2023/04/30 03:39:25;0.00;0.00;0.62;0.00;0.00;0.62;1.70;0.80;;;25.00;22.70;;;;;;2251979;61;20911;-64
2023/04/30 03:42:10;0.00;0.00;0.62;0.00;0.00;0.62;1.80;0.87;;;25.00;22.70;;;;;;2252148;61;20378;-64
2023/04/30 03:44:56;0.00;0.00;0.62;0.00;0.00;0.62;1.50;0.90;;;25.00;22.70;;;;;;2252794;61;20850;-65
2023/04/30 03:47:42;0.00;0.00;0.62;0.00;0.00;0.62;1.50;1.00;;;25.00;22.70;;;;;;2252787;61;20363;-69
2023/04/30 03:50:27;0.00;0.00;0.62;0.00;0.00;0.62;1.97;1.17;;;25.00;22.70;;;;;;2251566;61;20398;-64
2023/04/30 03:53:12;0.00;0.00;0.62;0.00;0.00;0.62;2.00;1.07;;;25.00;22.70;;;;;;2252543;61;20510;-66
2023/04/30 03:55:57;0.00;0.00;0.62;0.00;0.00;0.62;3.43;1.00;;;25.00;22.70;;;;;;2252283;61;20371;-65
2023/04/30 03:58:42;0.00;0.00;0.62;0.00;0.00;0.62;1.43;0.97;;;25.00;22.70;;;;;;2252150;61;20832;-67
2023/04/30 04:01:28;0.00;0.00;0.62;0.00;0.00;0.62;1.60;0.97;;;25.00;22.70;;;;;;2252518;61;20390;-64
2023/04/30 04:04:13;0.00;0.00;0.62;0.00;0.00;0.62;1.50;0.80;;;24.90;22.60;;;;;;2251788;61;20374;-64
2023/04/30 04:06:58;0.00;0.00;0.62;0.00;0.00;0.62;1.30;0.80;;;24.90;22.60;;;;;;2252678;61;20407;-64
2023/04/30 04:09:43;0.00;0.00;0.62;0.00;0.00;0.62;1.30;0.73;;;24.90;22.60;;;;;;2252051;61;20387;-67
2023/04/30 04:12:28;0.00;0.00;0.62;0.00;0.00;0.62;2.33;1.13;;;25.00;22.70;;;;;;2251548;61;20736;-63
2023/04/30 04:15:14;0.00;0.00;0.62;0.00;0.00;0.62;1.43;0.90;;;24.90;22.60;;;;;;2252001;61;20362;-67
2023/04/30 04:18:00;0.00;0.00;0.62;0.00;0.00;0.62;1.50;0.90;;;24.90;22.60;;;;;;2251621;61;20644;-64
2023/04/30 04:23:28;0.00;0.00;0.62;0.00;0.00;0.62;1.40;0.80;;;24.90;22.60;;;;;;2257759;61;20425;-67
2023/04/30 04:26:13;0.00;0.00;0.62;0.00;0.00;0.62;1.77;1.10;;;24.80;22.60;;;;;;2255624;61;20378;-65
2023/04/30 04:28:59;0.00;0.00;0.62;0.00;0.00;0.62;1.50;0.80;;;24.80;22.60;;;;;;2255803;61;20453;-65
2023/04/30 04:31:43;0.00;0.00;0.62;0.00;0.00;0.62;1.80;1.10;;;24.80;23.10;;;;;;2252341;61;20366;-65
2023/04/30 04:34:30;0.00;0.00;0.62;0.00;0.00;0.62;1.30;0.80;;;24.80;22.60;;;;;;2251324;61;20437;-66
2023/04/30 04:37:16;0.00;0.00;0.62;0.00;0.00;0.62;1.37;0.70;;;24.80;22.60;;;;;;2251830;61;20406;-67
2023/04/30 04:40:01;0.00;0.00;0.62;0.00;0.00;0.62;1.53;0.87;;;24.80;22.60;;;;;;2251482;61;20422;-67
2023/04/30 04:42:50;0.00;0.00;0.62;0.00;0.00;0.62;1.30;0.83;;;24.80;22.60;;;;;;2251650;61;20442;-65
2023/04/30 04:45:36;0.00;0.00;0.62;0.00;0.00;0.62;1.80;1.20;;;24.80;22.60;;;;;;2252072;61;20996;-67
2023/04/30 04:48:21;0.00;0.00;0.62;0.00;0.00;0.62;1.60;1.00;;;24.80;22.60;;;;;;2251328;61;20363;-65
2023/04/30 04:53:57;0.00;0.00;0.62;0.00;0.00;0.62;1.60;1.00;;;24.80;22.60;;;;;;2253927;61;20426;-66
2023/04/30 04:56:42;0.00;0.00;0.62;0.00;0.00;0.62;1.60;0.90;;;24.80;22.60;;;;;;2254304;61;20903;-66
2023/04/30 04:59:27;0.00;0.00;0.62;0.00;0.00;0.62;1.40;0.90;;;24.80;22.60;;;;;;2254380;61;20787;-67
2023/04/30 05:02:13;0.00;0.00;0.62;0.00;0.00;0.62;1.30;0.80;;;24.80;22.60;;;;;;2251157;61;20366;-67
2023/04/30 05:04:58;0.00;0.00;0.62;0.00;0.00;0.62;1.50;0.93;;;24.80;22.60;;;;;;2251826;61;20451;-66
2023/04/30 05:07:43;0.00;0.00;0.62;0.00;0.00;0.62;1.30;0.80;;;24.70;22.50;;;;;;2251786;61;20414;-66
2023/04/30 05:10:29;0.00;0.00;0.62;0.00;0.00;0.62;1.60;0.80;;;24.70;22.50;;;;;;2250779;61;20789;-66
2023/04/30 05:13:15;0.00;0.00;0.62;0.00;0.00;0.62;1.77;0.87;;;24.70;22.60;;;;;;2251798;61;20752;-66
2023/04/30 05:15:59;0.00;0.00;0.62;0.00;0.00;0.62;1.30;0.90;;;24.70;22.50;;;;;;2252300;61;20367;-66
2023/04/30 05:18:44;0.00;0.00;0.62;0.00;0.00;0.62;1.53;0.90;;;24.70;22.60;;;;;;2251491;61;20382;-66
2023/04/30 05:21:28;0.00;0.00;0.62;0.00;0.00;0.62;1.57;0.83;;;24.70;22.60;;;;;;2252168;61;20431;-66
2023/04/30 05:24:13;0.00;0.00;0.62;0.00;0.00;0.62;1.57;0.70;;;24.70;22.60;;;;;;2251826;61;20383;-66
2023/04/30 05:26:59;0.00;0.00;0.62;0.00;0.00;0.62;1.70;0.80;;;24.70;22.60;;;;;;2252307;61;20780;-66
2023/04/30 05:30:09;0.00;0.00;0.62;0.00;0.00;0.62;1.60;0.80;;;24.70;22.60;;;;;;2323368;40;20364;-66
2023/04/30 05:32:55;0.00;0.00;0.62;0.00;0.00;0.62;1.40;0.90;;;24.70;22.60;;;;;;2261335;61;20381;-69
2023/04/30 05:35:40;0.00;0.00;0.62;0.00;0.00;0.62;1.77;1.00;;;24.70;22.60;;;;;;2259683;61;20396;-66
2023/04/30 05:38:25;0.00;0.00;0.62;0.00;0.00;0.62;1.87;1.00;;;24.70;22.60;;;;;;2260260;61;20428;-67
2023/04/30 05:41:11;0.00;0.00;0.62;0.00;0.00;0.62;1.70;0.70;;;24.70;22.60;;;;;;2259115;61;20380;-66
2023/04/30 05:43:57;0.00;0.00;0.62;0.00;0.00;0.62;2.13;0.80;;;24.70;22.60;;;;;;2260310;61;20384;-66
2023/04/30 05:46:42;0.00;0.00;0.62;0.00;0.00;0.62;1.40;0.83;;;24.70;22.60;;;;;;2259892;61;20404;-65
2023/04/30 05:49:26;0.00;0.00;0.62;0.00;0.00;0.62;1.60;1.00;;;24.70;22.60;;;;;;2259588;61;20387;-67
2023/04/30 05:52:11;0.00;0.00;0.62;0.00;0.00;0.62;2.00;1.03;;;24.70;22.60;;;;;;2260237;61;20368;-67
2023/04/30 05:54:56;0.00;0.00;0.62;0.00;0.00;0.62;1.50;0.90;;;24.70;22.60;;;;;;2259371;61;20419;-66
2023/04/30 05:57:41;0.00;0.00;0.62;0.00;0.00;0.62;1.50;0.80;;;24.60;22.50;;;;;;2259586;61;20393;-66
2023/04/30 06:00:27;0.00;0.00;0.62;0.00;0.00;0.62;1.40;0.90;;;24.70;22.60;;;;;;2259789;61;20464;-67
2023/04/30 06:03:12;0.00;0.00;0.62;0.00;0.00;0.62;1.80;1.10;;;24.70;22.60;;;;;;2259094;61;20381;-67
2023/04/30 06:05:56;0.00;0.00;0.62;0.00;0.00;0.62;1.40;0.90;;;24.70;22.60;;;;;;2260345;61;20400;-66
2023/04/30 06:08:44;0.00;0.00;0.62;0.00;0.00;0.62;1.40;1.00;;;24.70;22.60;;;;;;2259762;61;20477;-66
2023/04/30 06:11:29;0.00;0.00;0.62;0.00;0.00;0.62;2.13;1.07;;;24.70;22.60;;;;;;2260162;61;20485;-66
2023/04/30 06:14:14;0.00;0.00;0.62;0.00;0.00;0.62;1.77;1.00;;;24.70;22.60;;;;;;2260186;61;20468;-66
2023/04/30 06:17:00;0.00;0.00;0.62;0.00;0.00;0.62;2.07;1.20;;;24.70;22.60;;;;;;2259599;61;20407;-64
2023/04/30 06:19:45;0.00;0.00;0.62;0.00;0.00;0.62;1.30;0.83;;;24.60;22.50;;;;;;2259967;61;20421;-66
2023/04/30 06:22:30;0.00;0.00;0.62;0.00;0.00;0.62;2.03;1.00;;;24.60;22.60;;;;;;2260145;61;20893;-67
2023/04/30 06:25:15;0.00;0.00;0.62;0.00;0.00;0.62;1.70;1.00;;;24.60;22.50;;;;;;2259277;61;20368;-66
2023/04/30 06:28:00;0.00;0.00;0.62;0.00;0.00;0.62;1.50;0.97;;;24.60;22.50;;;;;;2260039;61;20830;-67
2023/04/30 06:30:45;0.00;0.00;0.62;0.00;0.00;0.62;1.97;1.00;;;24.70;22.60;;;;;;2259746;61;20408;-66
2023/04/30 06:33:31;0.00;0.00;0.62;0.00;0.00;0.62;1.80;0.90;;;24.70;22.60;;;;;;2259863;61;20883;-66
2023/04/30 06:36:16;0.00;0.00;0.62;0.00;0.00;0.62;1.70;0.90;;;24.60;22.50;;;;;;2260148;61;20392;-64
2023/04/30 06:39:01;0.00;0.00;0.62;0.00;0.00;0.62;1.47;0.90;;;24.60;22.60;;;;;;2259363;61;20389;-66
2023/04/30 06:41:46;0.00;0.00;0.62;0.00;0.00;0.62;1.43;0.87;;;24.60;22.60;;;;;;2260083;61;20496;-65
2023/04/30 06:44:32;0.00;0.00;0.62;0.00;0.00;0.62;1.63;1.10;;;24.60;22.60;;;;;;2259983;61;20360;-67
2023/04/30 06:47:17;0.00;0.00;0.62;0.00;0.00;0.62;1.40;0.90;;;24.60;22.60;;;;;;2258844;61;20380;-67
2023/04/30 06:50:04;0.00;0.00;0.62;0.00;0.00;0.62;1.40;0.97;;;24.70;22.60;;;;;;2259518;61;20420;-67
2023/04/30 06:52:48;0.00;0.00;0.62;0.00;0.00;0.62;1.70;1.07;;;24.60;22.60;;;;;;2260133;61;20902;-66
2023/04/30 06:55:33;0.00;0.00;0.62;0.00;0.00;0.62;1.83;1.00;;;24.60;22.60;;;;;;2259900;61;20368;-66
2023/04/30 06:58:18;0.00;0.00;0.62;0.00;0.00;0.62;1.53;0.93;;;24.60;22.50;;;;;;2259979;61;20459;-66
2023/04/30 07:01:03;0.00;0.00;0.62;0.00;0.00;0.62;1.50;0.90;;;24.60;22.60;;;;;;2259243;61;20437;-67
2023/04/30 07:03:48;0.00;0.00;0.62;0.00;0.00;0.62;1.60;1.03;;;24.60;23.10;;;;;;2259652;61;20384;-66
2023/04/30 07:06:34;0.00;0.00;0.62;0.00;0.00;0.62;1.50;0.90;;;24.60;22.60;;;;;;2260090;61;20361;-66
2023/04/30 07:09:18;0.00;0.00;0.62;0.00;0.00;0.62;1.77;1.23;;;24.60;22.60;;;;;;2258975;61;20365;-66
2023/04/30 07:12:03;0.00;0.00;0.62;0.00;0.00;0.62;1.83;1.20;;;24.70;22.60;;;;;;2259952;61;20476;-67
2023/04/30 07:14:48;0.00;0.00;0.62;0.00;0.00;0.62;1.47;0.90;;;24.70;22.60;;;;;;2259897;61;20356;-67
2023/04/30 07:17:33;0.00;0.00;0.62;0.00;0.00;0.62;1.57;1.03;;;24.70;22.60;;;;;;2259232;61;20413;-67
2023/04/30 07:20:18;0.00;0.00;0.62;0.00;0.00;0.62;1.80;1.10;;;24.70;22.70;;;;;;2259152;61;20913;-68
2023/04/30 07:23:03;0.00;0.00;0.62;0.00;0.00;0.62;1.93;1.10;;;24.70;22.60;;;;;;2259679;61;20541;-66
2023/04/30 07:25:48;0.00;0.00;0.62;0.00;0.00;0.62;1.90;0.93;;;24.70;22.60;;;;;;2259701;61;20457;-67
2023/04/30 07:28:33;0.00;0.00;0.62;0.00;0.00;0.62;2.30;0.80;;;24.60;22.60;;;;;;2259912;61;20977;-68
2023/04/30 07:31:18;0.00;0.00;0.62;0.00;0.00;0.62;1.80;1.17;;;24.70;22.60;;;;;;2258471;61;20380;-68
2023/04/30 07:34:03;0.00;0.00;0.62;0.00;0.00;0.62;1.50;0.80;;;24.70;22.70;;;;;;2260064;61;20722;-69
2023/04/30 07:36:47;0.00;0.00;0.62;0.00;0.00;0.62;1.70;1.10;;;24.70;22.60;;;;;;2259602;61;20377;-66
2023/04/30 07:39:34;0.00;0.00;0.62;0.00;0.00;0.62;1.40;0.80;;;24.70;22.60;;;;;;2258846;61;20443;-65
2023/04/30 07:42:18;0.00;0.00;0.62;0.00;0.00;0.62;1.80;1.10;;;24.70;22.70;;;;;;2259846;61;20419;-66
2023/04/30 07:45:04;0.00;0.00;0.62;0.00;0.00;0.62;1.80;1.20;;;24.70;22.70;;;;;;2258645;61;20440;-67
2023/04/30 07:47:49;0.00;0.00;0.62;0.00;0.00;0.62;2.10;1.30;;;24.70;22.60;;;;;;2259698;61;20968;-67
2023/04/30 07:50:34;0.00;0.00;0.62;0.00;0.00;0.62;1.40;1.00;;;24.70;22.60;;;;;;2260100;61;20447;-69
2023/04/30 07:53:18;0.00;0.00;0.62;0.00;0.00;0.62;2.13;1.20;;;24.70;22.60;;;;;;2259723;61;20714;-66
2023/04/30 07:56:04;0.00;0.00;0.62;0.00;0.00;0.62;2.73;1.60;;;24.70;22.60;;;;;;2260554;61;20921;-67
2023/04/30 07:58:49;0.00;0.00;0.62;0.00;0.00;0.62;2.53;1.80;;;24.70;22.60;;;;;;2260010;61;20387;-63
2023/04/30 08:01:34;0.00;0.00;0.62;0.00;0.00;0.62;2.30;1.10;;;24.70;22.60;;;;;;2260049;61;20463;-67
2023/04/30 08:04:19;0.00;0.00;0.62;0.00;0.00;0.62;2.03;1.40;;;24.70;22.60;;;;;;2260480;61;20461;-66
2023/04/30 08:07:04;0.00;0.00;0.62;0.00;0.00;0.62;3.00;1.47;;;24.70;22.60;;;;;;2260106;61;20364;-66
2023/04/30 08:09:49;0.00;0.00;0.62;0.00;0.00;0.62;3.17;1.77;;;24.70;22.60;;;;;;2259978;61;20910;-67
2023/04/30 08:12:36;0.00;0.00;0.62;0.00;0.00;0.62;2.50;1.90;;;24.70;22.60;;;;;;2260055;61;20951;-67
2023/04/30 08:15:21;0.00;0.00;0.62;0.00;0.00;0.62;2.00;1.40;;;24.70;22.70;;;;;;2259597;61;20424;-67
2023/04/30 08:18:06;0.00;0.00;0.62;0.00;0.00;0.62;2.60;2.00;;;24.70;22.60;;;;;;2260724;61;20884;-67
2023/04/30 08:20:51;0.00;0.00;0.62;0.00;0.00;0.62;2.50;1.83;;;24.70;22.60;;;;;;2260056;61;20500;-67
2023/04/30 08:23:35;0.00;0.00;0.62;0.00;0.00;0.62;2.50;1.80;;;24.70;22.60;;;;;;2259738;61;20361;-65
2023/04/30 08:26:20;0.00;0.00;0.62;0.00;0.00;0.62;2.10;1.70;;;24.70;22.60;;;;;;2260673;61;20893;-64
2023/04/30 08:29:07;0.00;0.00;0.62;0.00;0.00;0.62;3.30;2.17;;;24.70;22.60;;;;;;2260143;61;20357;-68
2023/04/30 08:31:51;0.00;0.00;0.62;0.00;0.00;0.62;2.73;2.00;;;24.70;22.60;;;;;;2260206;61;20361;-66
2023/04/30 08:34:36;0.00;0.00;0.62;0.00;0.00;0.62;2.90;2.17;;;24.70;22.60;;;;;;2260198;61;20412;-66
2023/04/30 08:37:21;0.00;0.00;0.62;0.00;0.00;0.62;5.30;2.00;;;24.70;22.60;;;;;;2259830;61;20592;-67
2023/04/30 08:40:08;0.00;0.00;0.62;0.00;0.00;0.62;3.10;2.40;;;24.70;22.60;;;;;;2260354;61;21041;-67
2023/04/30 08:43:05;0.00;0.00;0.62;0.00;0.00;0.62;2.67;1.87;;;24.70;22.70;;;;;;2260492;61;20396;-68
2023/04/30 08:45:51;0.00;0.00;0.62;0.00;0.00;0.62;2.87;2.30;;;24.70;22.60;;;;;;2259756;61;20361;-67
2023/04/30 08:48:36;0.00;0.00;0.62;0.00;0.00;0.62;3.90;2.70;;;24.70;22.70;;;;;;2260184;61;20365;-67
2023/04/30 08:51:21;0.00;0.00;0.62;0.00;0.00;0.62;3.57;2.57;;;24.70;22.70;;;;;;2260154;61;20427;-65
2023/04/30 08:54:09;0.00;0.00;0.62;0.00;0.00;0.62;2.90;2.37;;;24.70;22.70;;;;;;2260020;61;20680;-68
2023/04/30 08:56:54;0.00;0.00;0.62;0.00;0.00;0.62;2.90;2.30;;;24.70;22.70;;;;;;2260452;61;20872;-67
2023/04/30 08:59:40;0.00;0.00;0.62;0.00;0.00;0.62;2.90;2.00;;;24.70;22.70;;;;;;2259276;61;20820;-65
2023/04/30 09:02:26;0.00;0.00;0.62;0.00;0.00;0.62;3.43;2.97;;;24.70;22.70;;;;;;2260301;61;20365;-67
2023/04/30 09:05:12;0.00;0.00;0.62;0.00;0.00;0.62;3.07;2.57;;;24.70;22.70;;;;;;2260249;61;20889;-68
2023/04/30 09:07:57;0.00;0.00;0.62;0.00;0.00;0.62;2.57;2.17;;;24.70;22.70;;;;;;2259834;61;20756;-67
2023/04/30 09:10:42;0.00;0.00;0.62;0.00;0.00;0.62;2.97;2.10;;;24.70;22.70;;;;;;2259704;61;21456;-67
2023/04/30 09:13:40;0.00;0.00;0.62;0.00;0.00;0.62;2.40;2.00;;;24.70;22.70;;;;;;2260243;61;20456;-67
2023/04/30 09:16:26;0.00;0.00;0.62;0.00;0.00;0.62;2.60;2.00;;;24.70;22.70;;;;;;2260017;61;20360;-67
2023/04/30 09:19:24;0.00;0.00;0.62;0.00;0.00;0.62;3.70;2.80;;;24.70;22.70;;;;;;2259824;61;20393;-67
2023/04/30 09:22:20;0.00;0.00;0.62;0.00;0.00;0.62;3.00;2.40;;;24.70;22.70;;;;;;2259240;61;20496;-67
2023/04/30 09:25:07;0.00;0.00;0.62;0.00;0.00;0.62;2.83;2.03;;;24.70;22.70;;;;;;2260114;61;20412;-67
2023/04/30 09:28:08;0.00;0.00;0.62;0.00;0.00;0.62;2.40;1.97;;;24.70;22.70;;;;;;2260325;61;20758;-67
2023/04/30 09:30:55;0.00;0.00;0.62;0.00;0.00;0.62;2.93;1.97;;;24.70;22.70;;;;;;2259462;61;20779;-70
2023/04/30 09:33:46;0.00;0.00;0.62;0.00;0.00;0.62;3.53;2.50;;;24.70;22.70;;;;;;2259921;61;21032;-66
2023/04/30 09:36:33;0.00;0.00;0.62;0.00;0.00;0.62;3.37;2.80;;;24.70;22.70;;;;;;2259834;61;20361;-66
2023/04/30 09:39:18;0.00;0.00;0.62;0.00;0.00;0.62;3.40;2.70;;;24.70;22.70;;;;;;2259717;61;20389;-66
2023/04/30 09:42:08;0.00;0.00;0.62;0.00;0.00;0.62;3.10;2.70;;;24.70;22.70;;;;;;2260318;61;20401;-68
2023/04/30 09:44:53;0.00;0.00;0.62;0.00;0.00;0.62;3.30;2.73;;;24.70;22.70;;;;;;2259385;61;20889;-67
2023/04/30 09:47:39;0.00;0.00;0.62;0.00;0.00;0.62;4.20;2.70;;;24.70;22.70;;;;;;2260333;61;20381;-66
2023/04/30 09:50:25;0.00;0.00;0.62;0.00;0.00;0.62;3.70;3.10;;;24.80;22.80;;;;;;2259745;61;20872;-67
2023/04/30 09:53:13;0.00;0.00;0.62;0.00;0.00;0.62;3.93;3.03;;;24.80;22.80;;;;;;2259742;61;20365;-68
2023/04/30 09:56:01;0.00;0.00;0.62;0.00;0.00;0.62;3.10;2.80;;;24.80;22.80;;;;;;2260367;61;20415;-67
2023/04/30 09:58:50;0.00;0.00;0.62;0.00;0.00;0.62;3.70;3.00;;;24.80;22.80;;;;;;2259668;61;20389;-67
2023/04/30 10:01:36;0.00;0.00;0.62;0.00;0.00;0.62;3.33;2.80;;;24.80;22.80;;;;;;2260058;61;20360;-67
2023/04/30 10:04:21;0.00;0.00;0.62;0.00;0.00;0.62;2.80;2.50;;;24.80;22.80;;;;;;2260141;61;20361;-68
2023/04/30 10:07:11;0.00;0.00;0.62;0.00;0.00;0.62;3.10;2.13;;;24.80;22.80;;;;;;2258836;61;20349;-67
2023/04/30 10:10:03;0.00;0.00;0.62;0.00;0.00;0.62;3.37;2.53;;;24.80;22.80;;;;;;2259791;61;20829;-67
2023/04/30 10:12:53;0.00;0.00;0.62;0.00;0.00;0.62;2.60;2.10;;;24.80;22.80;;;;;;2259880;61;20369;-67
2023/04/30 10:15:42;0.00;0.00;0.62;0.00;0.00;0.62;3.00;2.53;;;24.80;22.80;;;;;;2260040;61;20407;-67
2023/04/30 10:18:33;0.00;0.00;0.62;0.00;0.00;0.62;3.50;2.60;;;24.80;22.80;;;;;;2259547;61;20424;-68
2023/04/30 10:21:21;0.00;0.00;0.62;0.00;0.00;0.62;3.27;2.60;;;24.80;22.80;;;;;;2291657;40;20433;-68
2023/04/30 10:24:08;0.00;0.00;0.62;0.00;0.00;0.62;3.57;2.80;;;24.80;22.80;;;;;;2257359;61;20373;-66
2023/04/30 10:26:56;0.00;0.00;0.62;0.00;0.00;0.62;3.00;2.27;;;24.90;22.90;;;;;;2255951;61;20361;-67
2023/04/30 10:29:41;0.00;0.00;0.62;0.00;0.00;0.62;2.70;2.20;;;24.90;22.90;;;;;;2255167;61;20887;-70
2023/04/30 10:32:33;0.00;0.00;0.62;0.00;0.00;0.62;4.03;2.77;;;24.90;23.40;;;;;;2255736;61;20412;-68
2023/04/30 10:35:23;0.00;0.00;0.62;0.00;0.00;0.62;2.80;2.40;;;24.90;22.90;;;;;;2255402;61;20370;-70
2023/04/30 10:38:17;0.00;0.00;0.62;0.00;0.00;0.62;3.60;2.97;;;24.90;22.90;;;;;;2255838;61;20405;-68
2023/04/30 10:41:05;0.00;0.00;0.62;0.00;0.00;0.62;2.93;2.40;;;24.90;22.90;;;;;;2255493;61;20382;-66
2023/04/30 10:43:55;0.00;0.00;0.62;0.00;0.00;0.62;3.47;2.60;;;24.90;22.90;;;;;;2255237;61;20370;-68
2023/04/30 10:46:40;0.00;0.00;0.62;0.00;0.00;0.62;3.20;2.77;;;25.00;23.00;;;;;;2256082;61;20828;-68
2023/04/30 10:49:26;0.00;0.00;0.62;0.00;0.00;0.62;3.50;2.60;;;25.00;23.00;;;;;;2255668;61;20401;-68
2023/04/30 10:52:10;0.00;0.00;0.62;0.00;0.00;0.62;3.17;2.47;;;25.00;23.00;;;;;;2255444;61;20358;-67
2023/04/30 10:54:55;0.00;0.00;0.62;0.00;0.00;0.62;2.47;2.17;;;25.00;23.00;;;;;;2255866;61;20366;-68
2023/04/30 10:57:41;0.00;0.00;0.62;0.00;0.00;0.62;3.13;2.57;;;25.00;23.00;;;;;;2255620;61;20391;-68
2023/04/30 11:00:29;0.00;0.00;0.62;0.00;0.00;0.62;2.97;2.10;;;25.00;23.00;;;;;;2255381;61;20390;-65
2023/04/30 11:03:14;0.00;0.00;0.62;0.00;0.00;0.62;2.53;2.03;;;25.00;23.00;;;;;;2255676;61;20402;-67